createdAt,value
2018-05-29T00:01:10.996Z,15.40
2018-05-29T00:03:38.758Z,16.97
2018-05-29T00:06:06.626Z,17.80
2018-05-29T00:08:34.494Z,17.23
2018-05-29T00:11:02.292Z,17.20
2018-05-29T00:13:30.124Z,16.30
2018-05-29T00:15:58.605Z,16.13
2018-05-29T00:18:26.472Z,18.07
2018-05-29T00:20:54.236Z,16.33
2018-05-29T00:23:22.039Z,17.50
2018-05-29T00:25:49.867Z,17.73
2018-05-29T00:28:17.400Z,18.07
2018-05-29T00:30:45.678Z,19.30
2018-05-29T00:33:13.957Z,18.10
2018-05-29T00:35:42.221Z,17.67
2018-05-29T00:38:10.486Z,18.00
2018-05-29T00:40:37.996Z,19.00
2018-05-29T00:43:05.509Z,17.77
2018-05-29T00:45:33.777Z,19.87
2018-05-29T00:48:01.294Z,16.77
2018-05-29T00:50:28.812Z,17.20
2018-05-29T00:52:57.079Z,16.90
2018-05-29T00:55:39.211Z,17.00
2018-05-29T00:58:06.720Z,16.43
2018-05-29T01:00:35.738Z,16.13
2018-05-29T01:03:04.006Z,20.40
2018-05-29T01:05:31.510Z,17.73
2018-05-29T01:07:59.010Z,16.73
2018-05-29T01:10:28.018Z,17.73
2018-05-29T01:12:55.525Z,17.53
2018-05-29T01:15:23.054Z,17.57
2018-05-29T01:17:51.318Z,18.43
2018-05-29T01:20:19.588Z,18.10
2018-05-29T01:22:47.174Z,18.63
2018-05-29T01:25:14.688Z,18.20
2018-05-29T01:27:42.955Z,33.50
2018-05-29T01:30:10.584Z,17.93
2018-05-29T01:32:38.106Z,18.60
2018-05-29T01:35:06.374Z,18.77
2018-05-29T01:37:33.877Z,18.30
2018-05-29T01:40:01.385Z,19.00
2018-05-29T01:42:28.886Z,19.33
2018-05-29T01:44:56.385Z,19.10
2018-05-29T01:47:23.935Z,19.50
2018-05-29T01:52:25.458Z,20.43
2018-05-29T01:54:53.733Z,19.37
2018-05-29T01:57:22.018Z,20.30
2018-05-29T01:59:49.534Z,20.60
2018-05-29T02:02:17.155Z,21.10
2018-05-29T02:04:44.654Z,20.13
2018-05-29T02:07:12.161Z,19.97
2018-05-29T02:09:39.657Z,21.07
2018-05-29T02:12:07.161Z,20.37
2018-05-29T02:14:35.445Z,21.03
2018-05-29T02:17:03.717Z,20.90
2018-05-29T02:19:31.984Z,21.67
2018-05-29T02:22:00.249Z,20.30
2018-05-29T02:24:27.741Z,21.23
2018-05-29T02:26:55.237Z,20.43
2018-05-29T02:29:22.753Z,20.77
2018-05-29T02:31:50.254Z,21.27
2018-05-29T02:34:17.761Z,20.40
2018-05-29T02:36:46.044Z,19.07
2018-05-29T02:39:13.551Z,19.00
2018-05-29T02:41:41.065Z,18.83
2018-05-29T02:44:08.565Z,20.10
2018-05-29T02:46:36.094Z,20.23
2018-05-29T02:49:03.617Z,20.63
2018-05-29T02:51:31.901Z,21.03
2018-05-29T02:54:00.169Z,19.87
2018-05-29T02:56:28.441Z,19.97
2018-05-29T02:58:56.713Z,20.03
2018-05-29T03:01:24.217Z,20.23
2018-05-29T03:03:51.734Z,21.40
2018-05-29T03:06:19.234Z,20.50
2018-05-29T03:08:46.817Z,20.40
2018-05-29T03:11:14.317Z,20.90
2018-05-29T03:13:42.577Z,19.40
2018-05-29T03:16:10.081Z,22.00
2018-05-29T03:18:37.611Z,21.73
2018-05-29T03:21:05.880Z,21.00
2018-05-29T03:23:34.166Z,22.50
2018-05-29T03:26:02.455Z,22.00
2018-05-29T03:28:29.965Z,21.17
2018-05-29T03:30:57.484Z,21.13
2018-05-29T03:33:24.989Z,22.53
2018-05-29T03:35:52.491Z,21.70
2018-05-29T03:38:20.042Z,22.37
2018-05-29T03:40:48.313Z,21.50
2018-05-29T03:43:16.593Z,22.67
2018-05-29T03:45:44.866Z,31.10
2018-05-29T03:48:13.138Z,21.50
2018-05-29T03:50:42.410Z,22.83
2018-05-29T03:53:09.909Z,20.83
2018-05-29T03:55:38.187Z,21.23
2018-05-29T03:58:05.705Z,21.60
2018-05-29T04:00:33.205Z,22.40
2018-05-29T04:03:00.732Z,21.93
2018-05-29T04:05:29.001Z,21.67
2018-05-29T04:07:56.545Z,23.70
2018-05-29T04:10:24.039Z,23.00
2018-05-29T04:12:52.324Z,22.20
2018-05-29T04:15:20.603Z,22.93
2018-05-29T04:17:48.870Z,22.40
2018-05-29T04:20:17.135Z,23.13
2018-05-29T04:22:44.645Z,22.50
2018-05-29T04:25:12.150Z,21.40
2018-05-29T04:27:39.649Z,22.07
2018-05-29T04:30:07.166Z,24.70
2018-05-29T04:32:35.434Z,21.70
2018-05-29T04:35:02.966Z,21.10
2018-05-29T04:37:30.473Z,19.90
2018-05-29T04:39:58.750Z,29.00
2018-05-29T04:42:27.025Z,22.33
2018-05-29T04:44:55.301Z,41.33
2018-05-29T04:47:23.593Z,21.43
2018-05-29T04:49:51.861Z,20.33
2018-05-29T04:52:20.131Z,21.00
2018-05-29T04:54:48.401Z,20.37
2018-05-29T04:57:15.906Z,20.33
2018-05-29T04:59:43.435Z,20.43
2018-05-29T05:02:11.739Z,29.03
2018-05-29T05:04:39.234Z,20.00
2018-05-29T05:07:06.733Z,21.00
2018-05-29T05:09:34.989Z,29.87
2018-05-29T05:12:02.489Z,22.37
2018-05-29T05:14:30.027Z,20.30
2018-05-29T05:16:58.293Z,21.80
2018-05-29T05:19:26.557Z,19.40
2018-05-29T05:21:54.062Z,21.33
2018-05-29T05:24:21.566Z,20.17
2018-05-29T05:26:49.066Z,20.00
2018-05-29T05:29:16.569Z,20.17
2018-05-29T05:31:44.100Z,18.63
2018-05-29T05:34:12.635Z,19.63
2018-05-29T05:36:40.914Z,19.00
2018-05-29T05:39:09.201Z,18.30
2018-05-29T05:41:37.486Z,20.23
2018-05-29T05:44:05.753Z,19.30
2018-05-29T05:46:34.041Z,18.23
2018-05-29T05:49:02.331Z,20.30
2018-05-29T05:51:29.842Z,17.70
2018-05-29T05:53:58.171Z,18.63
2018-05-29T05:56:25.689Z,20.57
2018-05-29T05:58:53.992Z,20.40
2018-05-29T06:01:21.533Z,17.60
2018-05-29T06:03:49.926Z,18.13
2018-05-29T06:06:18.205Z,18.00
2018-05-29T06:08:45.712Z,16.83
2018-05-29T06:11:13.233Z,18.60
2018-05-29T06:13:40.762Z,17.53
2018-05-29T06:16:09.033Z,17.70
2018-05-29T06:18:37.305Z,18.93
2018-05-29T06:21:04.818Z,16.80
2018-05-29T06:23:32.323Z,17.40
2018-05-29T06:25:59.837Z,16.03
2018-05-29T06:28:27.353Z,16.70
2018-05-29T06:30:55.626Z,17.83
2018-05-29T06:33:23.896Z,17.10
2018-05-29T06:35:51.419Z,16.20
2018-05-29T06:38:18.952Z,16.40
2018-05-29T06:40:47.562Z,16.50
2018-05-29T06:43:15.203Z,18.50
2018-05-29T06:45:42.865Z,16.43
2018-05-29T06:48:10.491Z,15.47
2018-05-29T06:50:38.775Z,17.40
2018-05-29T06:53:07.060Z,17.30
2018-05-29T06:55:35.321Z,17.50
2018-05-29T06:58:03.597Z,16.50
2018-05-29T07:00:31.857Z,16.00
2018-05-29T07:02:59.353Z,15.67
2018-05-29T07:05:27.326Z,25.50
2018-05-29T07:07:54.869Z,16.20
2018-05-29T07:10:23.129Z,15.73
2018-05-29T07:12:50.697Z,16.47
2018-05-29T07:15:18.973Z,15.80
2018-05-29T07:17:47.241Z,15.83
2018-05-29T07:20:14.758Z,14.80
2018-05-29T07:22:42.269Z,13.73
2018-05-29T07:25:10.551Z,13.60
2018-05-29T07:27:38.066Z,14.07
2018-05-29T07:30:05.565Z,15.73
2018-05-29T07:32:33.871Z,14.00
2018-05-29T07:35:02.106Z,13.50
2018-05-29T07:37:30.382Z,14.07
2018-05-29T07:39:57.905Z,13.13
2018-05-29T07:42:25.423Z,13.60
2018-05-29T07:44:52.947Z,12.87
2018-05-29T07:47:20.450Z,13.20
2018-05-29T07:49:47.954Z,13.70
2018-05-29T07:52:15.453Z,13.43
2018-05-29T07:54:43.730Z,13.37
2018-05-29T07:57:11.999Z,12.00
2018-05-29T07:59:40.273Z,13.03
2018-05-29T08:02:08.551Z,11.83
2018-05-29T08:04:36.818Z,12.10
2018-05-29T08:07:05.791Z,12.30
2018-05-29T08:09:34.098Z,10.70
2018-05-29T08:12:02.371Z,11.00
2018-05-29T08:14:30.666Z,10.50
2018-05-29T08:16:58.173Z,11.40
2018-05-29T08:19:25.666Z,10.83
2018-05-29T08:21:53.935Z,11.30
2018-05-29T08:24:22.225Z,11.03
2018-05-29T08:26:50.489Z,11.03
2018-05-29T08:29:18.762Z,10.70
2018-05-29T08:31:47.022Z,10.37
2018-05-29T08:34:15.290Z,10.70
2018-05-29T08:36:42.795Z,11.37
2018-05-29T08:39:10.298Z,10.40
2018-05-29T08:41:37.802Z,12.60
2018-05-29T08:44:06.082Z,10.97
2018-05-29T08:46:34.350Z,10.80
2018-05-29T08:49:02.642Z,17.80
2018-05-29T08:51:30.142Z,10.60
2018-05-29T08:53:57.653Z,10.13
2018-05-29T08:56:25.930Z,10.20
2018-05-29T08:58:54.194Z,10.70
2018-05-29T09:01:22.462Z,9.83
2018-05-29T09:03:49.971Z,11.13
2018-05-29T09:06:17.481Z,10.53
2018-05-29T09:08:45.761Z,10.40
2018-05-29T09:11:14.030Z,10.73
2018-05-29T09:13:41.534Z,11.27
2018-05-29T09:16:09.034Z,10.47
2018-05-29T09:18:38.058Z,12.53
2018-05-29T09:21:06.325Z,11.47
2018-05-29T09:23:34.601Z,11.20
2018-05-29T09:26:02.940Z,10.40
2018-05-29T09:28:31.168Z,9.20
2018-05-29T09:30:59.448Z,10.07
2018-05-29T09:33:27.002Z,10.07
2018-05-29T09:35:54.521Z,10.10
2018-05-29T09:38:22.017Z,9.23
2018-05-29T09:40:50.280Z,9.70
2018-05-29T09:43:18.552Z,9.63
2018-05-29T09:45:46.086Z,9.77
2018-05-29T09:48:13.576Z,10.83
2018-05-29T09:50:41.862Z,11.50
2018-05-29T09:53:10.138Z,10.27
2018-05-29T09:55:38.397Z,9.27
2018-05-29T09:58:05.933Z,23.67
2018-05-29T10:00:39.090Z,11.30
2018-05-29T10:03:06.722Z,12.13
2018-05-29T10:05:34.986Z,11.33
2018-05-29T10:08:02.512Z,12.13
2018-05-29T10:10:30.015Z,11.40
2018-05-29T10:12:58.281Z,12.00
2018-05-29T10:15:25.789Z,11.10
2018-05-29T10:17:53.291Z,11.40
2018-05-29T10:20:20.814Z,10.60
2018-05-29T10:22:48.319Z,11.77
2018-05-29T10:25:16.601Z,11.63
2018-05-29T10:27:44.867Z,10.30
2018-05-29T10:30:13.147Z,12.00
2018-05-29T10:32:41.422Z,12.30
2018-05-29T10:35:09.701Z,10.60
2018-05-29T10:37:37.963Z,9.93
2018-05-29T10:40:08.780Z,9.93
2018-05-29T10:42:36.395Z,10.50
2018-05-29T10:45:03.915Z,8.83
2018-05-29T10:47:31.430Z,8.47
2018-05-29T10:49:58.917Z,8.50
2018-05-29T10:52:26.435Z,7.73
2018-05-29T10:54:54.702Z,7.97
2018-05-29T10:57:22.258Z,7.77
2018-05-29T10:59:50.517Z,7.17
2018-05-29T11:02:18.789Z,7.80
2018-05-29T11:04:47.054Z,7.40
2018-05-29T11:07:14.563Z,8.23
2018-05-29T11:09:42.076Z,8.10
2018-05-29T11:12:09.576Z,7.43
2018-05-29T11:14:37.073Z,7.70
2018-05-29T11:17:04.589Z,7.47
2018-05-29T11:19:32.082Z,7.23
2018-05-29T11:21:59.575Z,7.73
2018-05-29T11:24:27.082Z,7.63
2018-05-29T11:26:54.601Z,8.10
2018-05-29T11:29:22.874Z,8.77
2018-05-29T11:31:51.162Z,8.47
2018-05-29T11:34:19.415Z,8.70
2018-05-29T11:36:48.451Z,7.50
2018-05-29T11:39:15.948Z,8.30
2018-05-29T11:41:43.466Z,9.00
2018-05-29T11:44:10.969Z,8.43
2018-05-29T11:46:38.478Z,8.20
2018-05-29T11:49:05.981Z,8.30
2018-05-29T11:51:33.478Z,8.10
2018-05-29T11:54:01.769Z,8.13
2018-05-29T11:56:29.266Z,7.97
2018-05-29T11:58:56.779Z,30.90
2018-05-29T12:01:25.437Z,8.10
2018-05-29T12:03:54.437Z,7.43
2018-05-29T12:06:21.932Z,8.13
2018-05-29T12:08:49.442Z,7.80
2018-05-29T12:11:18.454Z,9.43
2018-05-29T12:13:46.735Z,7.60
2018-05-29T12:16:15.001Z,9.10
2018-05-29T12:18:42.510Z,8.90
2018-05-29T12:21:10.007Z,8.33
2018-05-29T12:23:37.510Z,7.90
2018-05-29T12:26:05.006Z,8.30
2018-05-29T12:28:32.502Z,8.30
2018-05-29T12:31:00.774Z,6.67
2018-05-29T12:33:29.049Z,8.30
2018-05-29T12:35:57.313Z,8.47
2018-05-29T12:38:24.817Z,11.50
2018-05-29T12:40:52.319Z,8.10
2018-05-29T12:43:19.829Z,8.00
2018-05-29T12:45:47.321Z,8.33
2018-05-29T12:48:14.823Z,7.33
2018-05-29T12:50:43.090Z,8.63
2018-05-29T12:53:10.585Z,7.90
2018-05-29T12:55:38.095Z,7.93
2018-05-29T12:58:05.610Z,8.37
2018-05-29T13:00:33.121Z,8.00
2018-05-29T13:03:00.627Z,7.50
2018-05-29T13:05:28.195Z,8.03
2018-05-29T13:07:55.721Z,7.70
2018-05-29T13:10:24.002Z,8.37
2018-05-29T13:12:52.258Z,7.87
2018-05-29T13:15:20.529Z,8.70
2018-05-29T13:17:48.039Z,8.07
2018-05-29T13:20:15.525Z,8.07
2018-05-29T13:22:43.034Z,7.10
2018-05-29T13:25:10.529Z,7.80
2018-05-29T13:27:38.026Z,8.53
2018-05-29T13:30:06.316Z,7.93
2018-05-29T13:32:34.601Z,8.30
2018-05-29T13:35:02.101Z,8.00
2018-05-29T13:37:29.594Z,7.30
2018-05-29T13:39:57.874Z,8.70
2018-05-29T13:42:26.153Z,7.90
2018-05-29T13:44:54.437Z,8.70
2018-05-29T13:47:22.699Z,8.20
2018-05-29T13:49:50.196Z,8.30
2018-05-29T13:52:17.699Z,7.90
2018-05-29T13:54:45.201Z,8.47
2018-05-29T13:57:12.739Z,7.70
2018-05-29T13:59:41.209Z,7.60
2018-05-29T14:02:08.703Z,8.40
2018-05-29T14:04:36.258Z,8.53
2018-05-29T14:07:03.767Z,7.97
2018-05-29T14:09:31.261Z,7.70
2018-05-29T14:11:59.539Z,7.77
2018-05-29T14:14:27.798Z,7.40
2018-05-29T14:16:55.294Z,6.80
2018-05-29T14:19:22.786Z,7.00
2018-05-29T14:21:50.293Z,7.27
2018-05-29T14:24:18.550Z,7.00
2018-05-29T14:26:46.061Z,7.17
2018-05-29T14:29:13.562Z,6.47
2018-05-29T14:31:41.066Z,6.50
2018-05-29T14:34:08.598Z,7.00
2018-05-29T14:36:36.857Z,6.43
2018-05-29T14:39:05.229Z,7.00
2018-05-29T14:41:32.822Z,7.20
2018-05-29T14:44:01.105Z,6.63
2018-05-29T14:46:29.352Z,6.97
2018-05-29T14:48:56.847Z,7.17
2018-05-29T14:51:24.371Z,6.93
2018-05-29T14:53:51.877Z,6.23
2018-05-29T14:56:22.693Z,7.10
2018-05-29T14:58:50.202Z,7.40
2018-05-29T15:01:17.717Z,6.60
2018-05-29T15:03:45.259Z,8.10
2018-05-29T15:06:13.526Z,7.57
2018-05-29T15:08:41.798Z,6.70
2018-05-29T15:11:10.061Z,7.43
2018-05-29T15:13:37.569Z,6.90
2018-05-29T15:16:05.077Z,7.47
2018-05-29T15:18:32.596Z,7.80
2018-05-29T15:21:00.077Z,7.57
2018-05-29T15:23:27.605Z,7.77
2018-05-29T15:25:55.107Z,8.30
2018-05-29T15:28:22.608Z,7.33
2018-05-29T15:30:50.105Z,7.67
2018-05-29T15:33:17.661Z,7.83
2018-05-29T15:35:45.154Z,7.47
2018-05-29T15:38:13.427Z,6.63
2018-05-29T15:40:40.936Z,7.10
2018-05-29T15:43:08.429Z,6.40
2018-05-29T15:45:35.934Z,6.90
2018-05-29T15:48:03.430Z,6.67
2018-05-29T15:50:30.929Z,7.33
2018-05-29T15:52:59.189Z,7.80
2018-05-29T15:55:26.700Z,7.67
2018-05-29T15:57:54.198Z,7.10
2018-05-29T16:00:21.685Z,7.07
2018-05-29T16:02:50.068Z,7.43
2018-05-29T16:05:18.330Z,7.37
2018-05-29T16:07:45.829Z,8.47
2018-05-29T16:10:13.342Z,8.10
2018-05-29T16:12:40.839Z,8.80
2018-05-29T16:15:08.337Z,8.17
2018-05-29T16:17:35.853Z,7.40
2018-05-29T16:20:03.369Z,7.50
2018-05-29T16:22:30.865Z,6.50
2018-05-29T16:24:58.369Z,6.50
2018-05-29T16:27:25.878Z,6.77
2018-05-29T16:29:53.377Z,7.53
2018-05-29T16:32:20.904Z,7.27
2018-05-29T16:34:48.394Z,7.20
2018-05-29T16:37:15.898Z,8.80
2018-05-29T16:39:44.169Z,7.87
2018-05-29T16:42:12.429Z,8.37
2018-05-29T16:44:39.933Z,7.80
2018-05-29T16:47:07.430Z,8.30
2018-05-29T16:49:34.942Z,8.83
2018-05-29T16:52:02.451Z,8.30
2018-05-29T16:54:29.945Z,7.60
2018-05-29T16:56:58.209Z,7.90
2018-05-29T16:59:26.493Z,8.83
2018-05-29T17:01:54.754Z,8.33
2018-05-29T17:04:22.345Z,9.30
2018-05-29T17:06:49.857Z,8.80
2018-05-29T17:09:17.369Z,9.67
2018-05-29T17:11:44.861Z,8.93
2018-05-29T17:14:12.353Z,8.70
2018-05-29T17:16:39.865Z,9.30
2018-05-29T17:19:07.357Z,9.70
2018-05-29T17:21:35.622Z,9.80
2018-05-29T17:24:03.146Z,8.77
2018-05-29T17:26:30.637Z,8.00
2018-05-29T17:28:58.144Z,9.43
2018-05-29T17:31:26.414Z,9.57
2018-05-29T17:33:54.673Z,9.10
2018-05-29T17:36:22.166Z,7.70
2018-05-29T17:38:49.673Z,8.10
2018-05-29T17:41:17.164Z,7.80
2018-05-29T17:43:45.418Z,8.93
2018-05-29T17:46:12.925Z,9.47
2018-05-29T17:48:40.422Z,9.10
2018-05-29T17:51:07.960Z,8.90
2018-05-29T17:53:35.465Z,8.50
2018-05-29T17:56:03.758Z,8.30
2018-05-29T17:58:32.018Z,8.23
2018-05-29T18:01:00.302Z,8.97
2018-05-29T18:03:28.579Z,8.27
2018-05-29T18:05:56.853Z,8.27
2018-05-29T18:08:25.137Z,8.20
2018-05-29T18:10:53.421Z,16.70
2018-05-29T18:13:20.946Z,7.93
2018-05-29T18:15:48.469Z,8.27
2018-05-29T18:18:15.962Z,7.30
2018-05-29T18:20:43.502Z,7.50
2018-05-29T18:23:11.007Z,7.37
2018-05-29T18:25:39.822Z,7.33
2018-05-29T18:28:07.321Z,7.50
2018-05-29T18:30:35.582Z,8.50
2018-05-29T18:33:03.078Z,8.10
2018-05-29T18:35:31.355Z,8.47
2018-05-29T18:37:59.615Z,7.60
2018-05-29T18:40:27.878Z,6.90
2018-05-29T18:42:55.409Z,7.40
2018-05-29T18:45:22.901Z,6.57
2018-05-29T18:47:50.393Z,9.00
2018-05-29T18:50:18.726Z,7.83
2018-05-29T18:52:46.211Z,6.73
2018-05-29T18:55:13.721Z,6.37
2018-05-29T18:57:41.235Z,6.33
2018-05-29T19:00:09.501Z,5.60
2018-05-29T19:02:37.782Z,5.53
2018-05-29T19:05:05.282Z,5.33
2018-05-29T19:07:32.778Z,5.53
2018-05-29T19:10:00.288Z,4.70
2018-05-29T19:12:28.502Z,5.33
2018-05-29T19:14:56.018Z,4.77
2018-05-29T19:17:23.514Z,5.17
2018-05-29T19:19:51.009Z,5.47
2018-05-29T19:22:19.273Z,5.47
2018-05-29T19:24:46.765Z,5.70
2018-05-29T19:27:14.269Z,5.17
2018-05-29T19:29:41.770Z,6.03
2018-05-29T19:32:10.029Z,5.07
2018-05-29T19:34:37.531Z,5.50
2018-05-29T19:37:05.025Z,5.50
2018-05-29T19:39:32.516Z,6.50
2018-05-29T19:42:00.793Z,6.20
2018-05-29T19:44:29.053Z,6.33
2018-05-29T19:46:56.546Z,5.97
2018-05-29T19:49:24.042Z,6.90
2018-05-29T19:51:51.558Z,6.20
2018-05-29T19:54:19.049Z,6.00
2018-05-29T19:56:46.552Z,6.53
2018-05-29T19:59:14.055Z,6.23
2018-05-29T20:01:41.546Z,6.20
2018-05-29T20:04:09.037Z,5.97
2018-05-29T20:06:37.297Z,7.63
2018-05-29T20:09:05.890Z,6.63
2018-05-29T20:11:34.257Z,5.77
2018-05-29T20:14:01.751Z,6.23
2018-05-29T20:16:29.255Z,6.00
2018-05-29T20:18:56.754Z,5.80
2018-05-29T20:21:25.021Z,6.03
2018-05-29T20:23:53.277Z,6.33
2018-05-29T20:26:20.765Z,6.13
2018-05-29T20:28:49.031Z,6.10
2018-05-29T20:31:17.351Z,7.07
2018-05-29T20:33:45.602Z,7.03
2018-05-29T20:36:13.089Z,6.50
2018-05-29T20:38:40.601Z,6.80
2018-05-29T20:41:08.881Z,7.03
2018-05-29T20:43:37.190Z,6.13
2018-05-29T20:46:05.429Z,6.90
2018-05-29T20:48:33.697Z,6.70
2018-05-29T20:51:01.973Z,7.37
2018-05-29T20:53:29.481Z,7.10
2018-05-29T20:55:56.993Z,7.03
2018-05-29T20:58:24.481Z,7.10
2018-05-29T21:00:51.990Z,7.33
2018-05-29T21:03:19.494Z,9.03
2018-05-29T21:05:46.989Z,7.03
2018-05-29T21:08:14.478Z,7.90
2018-05-29T21:10:41.966Z,9.07
2018-05-29T21:13:09.481Z,9.50
2018-05-29T21:15:37.010Z,9.50
2018-05-29T21:18:04.536Z,8.53
2018-05-29T21:20:32.794Z,9.03
2018-05-29T21:23:00.302Z,8.90
2018-05-29T21:25:27.802Z,8.50
2018-05-29T21:27:55.294Z,8.17
2018-05-29T21:30:23.566Z,8.70
2018-05-29T21:32:51.825Z,8.10
2018-05-29T21:35:20.094Z,8.63
2018-05-29T21:37:47.586Z,8.57
2018-05-29T21:40:15.137Z,8.40
2018-05-29T21:42:42.637Z,7.90
2018-05-29T21:45:10.129Z,8.90
2018-05-29T21:47:37.621Z,8.87
2018-05-29T21:50:05.118Z,8.57
2018-05-29T21:52:32.609Z,9.07
2018-05-29T21:55:00.887Z,7.90
2018-05-29T21:57:29.149Z,8.10
2018-05-29T21:59:56.703Z,8.30
2018-05-29T22:02:24.174Z,8.53
2018-05-29T22:04:52.442Z,8.07
2018-05-29T22:07:19.954Z,7.63
2018-05-29T22:09:47.440Z,8.30
2018-05-29T22:12:14.934Z,7.77
2018-05-29T22:14:43.229Z,8.90
2018-05-29T22:17:10.742Z,8.80
2018-05-29T22:19:38.234Z,8.33
2018-05-29T22:22:06.501Z,8.77
2018-05-29T22:24:34.790Z,9.07
2018-05-29T22:27:03.054Z,8.13
2018-05-29T22:29:31.321Z,8.90
2018-05-29T22:31:58.826Z,9.27
2018-05-29T22:34:26.313Z,8.23
2018-05-29T22:36:53.806Z,8.23
2018-05-29T22:39:22.074Z,8.33
2018-05-29T22:41:49.569Z,7.93
2018-05-29T22:44:17.058Z,8.43
2018-05-29T22:46:44.558Z,18.43
2018-05-29T22:49:12.845Z,9.00
2018-05-29T22:51:41.100Z,7.27
2018-05-29T22:54:08.681Z,8.20
2018-05-29T22:56:36.945Z,8.00
2018-05-29T22:59:05.209Z,9.00
2018-05-29T23:44:52.772Z,6.77
2018-05-29T23:47:20.265Z,5.73
2018-05-29T23:49:47.782Z,5.70
2018-05-29T23:52:15.287Z,5.63
2018-05-29T23:54:42.797Z,5.43
2018-05-29T23:57:10.294Z,6.13
2018-05-29T23:59:37.795Z,6.30
